Terminal Aerodrome Forecast
Issued by NWS

Home | Current Version | Previous Version | Text Only | Print | Product List | Glossary On
Versions: 1 2 3 4 5 6 7 8 9 10 11 12 13 14
174
FTUS45 KVEF 010527
TAFEED
TAF
KEED 010527Z 0106/0206 35010KT P6SM FEW060 SCT100
     FM011500 02007KT P6SM SCT100
     FM020300 VRB05KT P6SM SCT100=

USA.gov is the U.S. government's official web portal to all federal, state and local government web resources and services.